createdAt,value
2023-06-14T00:00:19.617Z,4.17
2023-06-14T00:02:48.641Z,4.63
2023-06-14T00:05:17.118Z,3.93
2023-06-14T00:07:45.627Z,4.70
2023-06-14T00:10:14.377Z,4.87
2023-06-14T00:12:43.622Z,4.30
2023-06-14T00:15:12.141Z,4.47
2023-06-14T00:17:42.169Z,4.33
2023-06-14T00:20:13.452Z,4.83
2023-06-14T00:22:41.898Z,4.93
2023-06-14T00:25:23.928Z,4.70
2023-06-14T00:27:57.793Z,4.97
2023-06-14T00:30:31.674Z,5.90
2023-06-14T00:33:04.700Z,4.90
2023-06-14T00:35:33.350Z,4.80
2023-06-14T00:38:02.894Z,4.20
2023-06-14T00:40:31.497Z,5.47
2023-06-14T00:43:00.297Z,5.00
2023-06-14T00:45:28.954Z,4.73
2023-06-14T00:47:58.533Z,4.90
2023-06-14T00:50:28.941Z,5.30
2023-06-14T00:52:57.427Z,5.27
2023-06-14T00:55:26.953Z,5.10
2023-06-14T00:57:58.662Z,4.80
2023-06-14T01:00:29.617Z,5.13
2023-06-14T01:02:58.250Z,4.87
2023-06-14T01:05:28.595Z,4.80
2023-06-14T01:08:17.083Z,4.63
2023-06-14T01:10:55.326Z,4.63
2023-06-14T01:13:30.208Z,4.83
2023-06-14T01:15:59.067Z,4.83
2023-06-14T01:18:30.920Z,5.07
2023-06-14T01:21:01.400Z,5.07
2023-06-14T01:23:34.228Z,5.33
2023-06-14T01:26:04.735Z,5.40
2023-06-14T01:28:36.951Z,4.30
2023-06-14T01:31:06.393Z,4.77
2023-06-14T01:33:37.708Z,4.43
2023-06-14T01:36:09.306Z,5.03
2023-06-14T01:38:40.798Z,4.90
2023-06-14T01:41:10.154Z,4.73
2023-06-14T01:43:39.817Z,4.70
2023-06-14T01:46:09.337Z,4.67
2023-06-14T01:48:37.969Z,4.53
2023-06-14T01:51:06.423Z,5.40
2023-06-14T01:53:34.746Z,5.17
2023-06-14T01:56:04.772Z,4.63
2023-06-14T01:58:33.924Z,4.97
2023-06-14T02:01:03.438Z,5.17
2023-06-14T02:03:32.383Z,4.37
2023-06-14T02:06:01.518Z,5.10
2023-06-14T02:08:30.049Z,5.17
2023-06-14T02:10:58.556Z,4.37
2023-06-14T02:13:28.342Z,4.20
2023-06-14T02:15:56.895Z,4.90
2023-06-14T02:18:26.467Z,5.23
2023-06-14T02:20:55.030Z,5.30
2023-06-14T02:23:23.447Z,5.00
2023-06-14T02:25:54.065Z,5.13
2023-06-14T02:28:22.981Z,4.73
2023-06-14T02:30:52.753Z,4.33
2023-06-14T02:33:26.261Z,4.53
2023-06-14T02:35:54.802Z,4.77
2023-06-14T02:38:23.274Z,5.13
2023-06-14T02:40:52.062Z,4.50
2023-06-14T02:43:21.252Z,4.90
2023-06-14T02:45:50.269Z,4.60
2023-06-14T02:48:22.611Z,4.70
2023-06-14T02:50:51.322Z,5.50
2023-06-14T02:53:20.098Z,5.40
2023-06-14T02:55:49.317Z,5.37
2023-06-14T02:58:19.410Z,4.70
2023-06-14T03:00:47.860Z,4.47
2023-06-14T03:03:17.783Z,5.50
2023-06-14T03:05:55.721Z,4.70
2023-06-14T03:08:30.020Z,4.40
2023-06-14T03:11:03.371Z,4.73
2023-06-14T03:13:34.631Z,5.13
2023-06-14T03:16:03.580Z,5.20
2023-06-14T03:18:36.705Z,5.03
2023-06-14T03:21:10.238Z,5.40
2023-06-14T03:23:41.330Z,5.10
2023-06-14T03:26:15.989Z,5.10
2023-06-14T03:28:44.698Z,5.47
2023-06-14T03:31:13.281Z,5.13
2023-06-14T03:33:42.298Z,5.10
2023-06-14T03:36:12.272Z,4.63
2023-06-14T03:38:40.992Z,4.80
2023-06-14T03:41:11.728Z,5.30
2023-06-14T03:43:40.210Z,4.90
2023-06-14T03:46:09.389Z,4.83
2023-06-14T03:48:38.234Z,5.70
2023-06-14T03:51:06.951Z,4.33
2023-06-14T03:53:40.104Z,4.40
2023-06-14T03:56:13.429Z,4.43
2023-06-14T03:58:45.168Z,4.50
2023-06-14T04:01:14.349Z,4.73
2023-06-14T04:03:42.760Z,5.30
2023-06-14T04:06:11.691Z,4.60
2023-06-14T04:08:41.727Z,4.27
2023-06-14T04:11:11.728Z,4.33
2023-06-14T04:13:40.649Z,4.40
2023-06-14T04:16:11.401Z,4.80
2023-06-14T04:18:39.942Z,5.00
2023-06-14T04:21:10.992Z,4.90
2023-06-14T04:23:45.446Z,5.53
2023-06-14T04:26:17.098Z,4.47
2023-06-14T04:28:48.110Z,4.73
2023-06-14T04:31:17.539Z,4.80
2023-06-14T04:33:48.046Z,5.17
2023-06-14T04:36:20.963Z,4.80
2023-06-14T04:38:55.306Z,5.07
2023-06-14T04:41:30.027Z,4.50
2023-06-14T04:44:02.490Z,4.87
2023-06-14T04:46:34.565Z,4.70
2023-06-14T04:49:04.081Z,4.60
2023-06-14T04:51:34.712Z,4.80
2023-06-14T04:54:05.932Z,5.00
2023-06-14T04:56:34.946Z,5.07
2023-06-14T04:59:05.651Z,4.37
2023-06-14T05:01:34.510Z,4.37
2023-06-14T05:04:03.093Z,4.33
2023-06-14T05:06:33.050Z,4.90
2023-06-14T05:09:04.253Z,5.87
2023-06-14T05:11:32.739Z,5.40
2023-06-14T05:14:02.554Z,5.40
2023-06-14T05:16:31.412Z,5.30
2023-06-14T05:19:02.568Z,6.03
2023-06-14T05:21:31.555Z,6.30
2023-06-14T05:24:00.356Z,5.67
2023-06-14T05:26:31.543Z,5.17
2023-06-14T05:29:02.473Z,5.60
2023-06-14T05:31:31.228Z,6.10
2023-06-14T05:33:59.899Z,4.73
2023-06-14T05:36:30.031Z,5.10
2023-06-14T05:39:00.499Z,4.87
2023-06-14T05:41:31.178Z,5.00
2023-06-14T05:44:01.249Z,4.60
2023-06-14T05:46:29.897Z,4.57
2023-06-14T05:49:01.750Z,5.03
2023-06-14T05:51:30.388Z,5.17
2023-06-14T05:53:59.984Z,4.37
2023-06-14T05:56:29.787Z,4.90
2023-06-14T05:58:58.969Z,4.70
2023-06-14T06:01:27.601Z,4.97
2023-06-14T06:03:56.048Z,5.50
2023-06-14T06:06:24.410Z,5.00
2023-06-14T06:08:52.924Z,4.87
2023-06-14T06:11:21.295Z,4.80
2023-06-14T06:13:51.726Z,4.40
2023-06-14T06:16:20.141Z,5.03
2023-06-14T06:18:48.444Z,4.97
2023-06-14T06:21:16.999Z,5.13
2023-06-14T06:23:45.324Z,5.10
2023-06-14T06:26:13.707Z,4.63
2023-06-14T06:28:42.254Z,3.97
2023-06-14T06:31:14.622Z,4.60
2023-06-14T06:33:43.288Z,4.40
2023-06-14T06:36:12.941Z,4.20
2023-06-14T06:38:41.917Z,4.70
2023-06-14T06:41:11.308Z,4.23
2023-06-14T06:43:39.808Z,4.73
2023-06-14T06:46:09.525Z,5.07
2023-06-14T06:48:39.132Z,5.00
2023-06-14T06:51:07.817Z,4.90
2023-06-14T06:53:41.975Z,4.77
2023-06-14T06:56:12.598Z,4.73
2023-06-14T06:58:41.062Z,4.97
2023-06-14T07:01:10.373Z,4.73
2023-06-14T07:03:40.150Z,4.17
2023-06-14T07:06:11.490Z,4.77
2023-06-14T07:08:40.453Z,4.70
2023-06-14T07:11:09.613Z,4.47
2023-06-14T07:13:38.098Z,4.53
2023-06-14T07:16:07.834Z,4.27
2023-06-14T07:18:36.436Z,4.70
2023-06-14T07:21:06.941Z,4.90
2023-06-14T07:23:37.033Z,5.00
2023-06-14T07:26:05.327Z,4.40
2023-06-14T07:28:33.758Z,5.20
2023-06-14T07:31:02.121Z,5.23
2023-06-14T07:33:30.690Z,4.80
2023-06-14T07:35:59.171Z,4.83
2023-06-14T07:38:29.430Z,4.40
2023-06-14T07:40:57.842Z,4.77
2023-06-14T07:43:26.278Z,4.50
2023-06-14T07:46:06.952Z,5.20
2023-06-14T07:48:36.652Z,5.17
2023-06-14T07:51:05.162Z,4.47
2023-06-14T07:53:35.220Z,4.70
2023-06-14T07:56:03.811Z,5.50
2023-06-14T07:58:32.176Z,4.83
2023-06-14T08:01:01.126Z,4.97
2023-06-14T08:03:29.566Z,4.57
2023-06-14T08:05:58.056Z,4.27
2023-06-14T08:08:26.601Z,4.50
2023-06-14T08:10:56.521Z,4.60
2023-06-14T08:13:24.864Z,4.80
2023-06-14T08:15:53.266Z,4.40
2023-06-14T08:18:21.678Z,4.60
2023-06-14T08:20:51.290Z,4.47
2023-06-14T08:23:22.007Z,4.80
2023-06-14T08:25:50.422Z,4.73
2023-06-14T08:28:20.118Z,4.80
2023-06-14T08:30:48.629Z,4.80
2023-06-14T08:33:17.668Z,4.53
2023-06-14T08:35:46.293Z,4.67
2023-06-14T08:38:15.155Z,4.27
2023-06-14T08:40:44.688Z,3.80
2023-06-14T08:43:13.057Z,4.10
2023-06-14T08:45:42.899Z,4.43
2023-06-14T08:48:12.482Z,4.40
2023-06-14T08:50:44.196Z,3.93
2023-06-14T08:53:21.305Z,4.37
2023-06-14T08:55:50.967Z,5.13
2023-06-14T08:58:20.716Z,3.97
2023-06-14T09:00:53.400Z,3.20
2023-06-14T09:03:21.896Z,3.70
2023-06-14T09:05:51.135Z,4.13
2023-06-14T09:08:20.198Z,3.97
2023-06-14T09:10:48.536Z,4.00
2023-06-14T09:13:17.203Z,4.43
2023-06-14T09:15:45.694Z,4.20
2023-06-14T09:18:16.036Z,4.27
2023-06-14T09:20:44.391Z,3.60
2023-06-14T09:23:13.877Z,3.20
2023-06-14T09:25:46.149Z,3.90
2023-06-14T09:28:14.840Z,4.30
2023-06-14T09:30:43.292Z,3.70
2023-06-14T09:33:11.989Z,3.43
2023-06-14T09:35:41.717Z,3.47
2023-06-14T09:38:11.055Z,3.70
2023-06-14T09:40:39.417Z,3.60
2023-06-14T09:43:11.655Z,3.13
2023-06-14T09:45:42.184Z,3.27
2023-06-14T09:48:11.337Z,3.73
2023-06-14T09:50:41.468Z,4.00
2023-06-14T09:53:13.107Z,3.10
2023-06-14T09:55:43.921Z,3.57
2023-06-14T09:58:14.337Z,3.13
2023-06-14T10:00:44.872Z,3.03
2023-06-14T10:03:23.406Z,4.00
2023-06-14T10:05:53.579Z,2.83
2023-06-14T10:08:27.675Z,3.00
2023-06-14T10:10:57.542Z,3.33
2023-06-14T10:13:27.901Z,2.83
2023-06-14T10:16:08.661Z,2.47
2023-06-14T10:18:47.553Z,2.80
2023-06-14T10:21:26.544Z,2.73
2023-06-14T10:23:55.918Z,3.03
2023-06-14T10:26:26.152Z,3.00
2023-06-14T10:29:03.485Z,2.53
2023-06-14T10:31:46.021Z,2.43
2023-06-14T10:34:24.103Z,1.90
2023-06-14T10:37:05.041Z,2.10
2023-06-14T10:39:34.956Z,2.00
2023-06-14T10:42:06.583Z,2.00
2023-06-14T10:44:46.513Z,1.97
2023-06-14T10:47:29.669Z,2.03
2023-06-14T10:50:05.440Z,1.90
2023-06-14T10:52:37.572Z,2.23
2023-06-14T10:55:10.864Z,2.03
2023-06-14T10:57:49.179Z,2.20
2023-06-14T11:00:23.997Z,2.17
2023-06-14T11:03:38.796Z,2.30
2023-06-14T11:06:17.156Z,1.87
2023-06-14T11:09:24.129Z,1.90
2023-06-14T11:11:56.295Z,2.23
2023-06-14T11:14:24.591Z,1.93
2023-06-14T11:16:53.212Z,2.00
2023-06-14T11:19:21.591Z,2.33
2023-06-14T11:21:51.009Z,2.53
2023-06-14T11:24:22.042Z,1.93
2023-06-14T11:26:51.596Z,2.30
2023-06-14T11:29:22.851Z,2.10
2023-06-14T11:31:51.304Z,2.20
2023-06-14T11:34:21.176Z,2.50
2023-06-14T11:36:49.737Z,1.90
2023-06-14T11:39:18.235Z,2.07
2023-06-14T11:41:48.256Z,2.33
2023-06-14T11:44:16.568Z,2.20
2023-06-14T11:46:46.029Z,2.23
2023-06-14T11:49:14.412Z,2.60
2023-06-14T11:51:45.767Z,2.20
2023-06-14T11:54:14.681Z,2.30
2023-06-14T11:56:43.394Z,2.57
2023-06-14T11:59:15.540Z,2.40
2023-06-14T12:01:46.525Z,2.23
2023-06-14T12:04:15.185Z,2.33
2023-06-14T12:06:44.576Z,2.37
2023-06-14T12:09:18.495Z,2.20
2023-06-14T12:11:46.937Z,2.50
2023-06-14T12:14:16.659Z,2.37
2023-06-14T12:16:45.080Z,2.13
2023-06-14T12:19:18.056Z,2.40
2023-06-14T12:21:50.675Z,2.20
2023-06-14T12:24:19.602Z,2.60
2023-06-14T12:26:48.345Z,2.30
2023-06-14T12:29:18.140Z,2.50
2023-06-14T12:31:46.360Z,2.00
2023-06-14T12:34:14.877Z,2.37
2023-06-14T12:36:45.977Z,2.23
2023-06-14T12:39:15.196Z,2.53
2023-06-14T12:41:43.627Z,2.00
2023-06-14T12:44:13.483Z,2.13
2023-06-14T12:46:44.815Z,2.33
2023-06-14T12:49:14.297Z,2.13
2023-06-14T12:51:42.776Z,2.30
2023-06-14T12:54:11.694Z,2.13
2023-06-14T12:56:40.360Z,2.27
2023-06-14T12:59:09.000Z,2.40
2023-06-14T13:01:39.815Z,2.00
2023-06-14T13:04:09.818Z,2.43
2023-06-14T13:06:38.233Z,2.53
2023-06-14T13:09:07.501Z,2.60
2023-06-14T13:11:36.405Z,3.00
2023-06-14T13:14:14.048Z,2.50
2023-06-14T13:16:46.271Z,2.27
2023-06-14T13:19:15.931Z,2.53
2023-06-14T13:21:44.261Z,2.53
2023-06-14T13:24:12.941Z,2.57
2023-06-14T13:26:41.622Z,3.10
2023-06-14T13:29:09.883Z,1.90
2023-06-14T13:31:38.338Z,2.30
2023-06-14T13:34:06.782Z,2.60
2023-06-14T13:36:36.612Z,2.80
2023-06-14T13:39:05.060Z,2.20
2023-06-14T13:41:35.960Z,2.30
2023-06-14T13:44:05.829Z,2.00
2023-06-14T13:46:34.575Z,2.40
2023-06-14T13:49:03.217Z,2.30
2023-06-14T13:51:31.904Z,2.77
2023-06-14T13:54:02.033Z,2.53
2023-06-14T13:56:31.267Z,2.30
2023-06-14T13:59:00.187Z,2.87
2023-06-14T14:01:30.087Z,2.90
2023-06-14T14:03:59.885Z,2.60
2023-06-14T14:06:28.217Z,2.40
2023-06-14T14:08:56.643Z,2.40
2023-06-14T14:11:26.456Z,2.43
2023-06-14T14:13:55.450Z,2.60
2023-06-14T14:16:24.292Z,2.77
2023-06-14T14:18:53.004Z,2.50
2023-06-14T14:21:21.559Z,2.60
2023-06-14T14:23:50.973Z,2.10
2023-06-14T14:26:19.399Z,2.00
2023-06-14T14:28:49.094Z,2.50
2023-06-14T14:31:17.490Z,2.30
2023-06-14T14:33:46.287Z,2.17
2023-06-14T14:36:14.966Z,2.70
2023-06-14T14:38:43.661Z,1.97
2023-06-14T14:41:12.237Z,1.97
2023-06-14T14:43:40.795Z,2.50
2023-06-14T14:46:10.816Z,2.27
2023-06-14T14:48:39.104Z,2.20
2023-06-14T14:51:07.710Z,2.50
2023-06-14T14:53:36.362Z,2.00
2023-06-14T14:56:07.049Z,2.27
2023-06-14T14:58:35.907Z,2.50
2023-06-14T15:01:04.605Z,2.43
2023-06-14T15:03:49.706Z,2.43
2023-06-14T15:06:23.591Z,1.93
2023-06-14T15:08:53.020Z,2.30
2023-06-14T15:11:21.539Z,2.20
2023-06-14T15:13:50.034Z,2.43
2023-06-14T15:16:18.741Z,2.30
2023-06-14T15:18:48.539Z,2.00
2023-06-14T15:21:17.230Z,2.10
2023-06-14T15:23:45.831Z,1.80
2023-06-14T15:26:14.355Z,2.10
2023-06-14T15:28:42.966Z,2.27
2023-06-14T15:31:11.434Z,1.70
2023-06-14T15:33:39.774Z,1.87
2023-06-14T15:36:12.534Z,1.87
2023-06-14T15:38:40.956Z,2.33
2023-06-14T15:41:09.559Z,2.33
2023-06-14T15:43:37.929Z,1.87
2023-06-14T15:46:06.320Z,2.33
2023-06-14T15:48:35.058Z,2.40
2023-06-14T15:51:03.684Z,1.97
2023-06-14T15:53:36.768Z,1.80
2023-06-14T15:56:05.394Z,1.87
2023-06-14T15:58:33.834Z,1.80
2023-06-14T16:01:02.414Z,1.80
2023-06-14T16:03:31.102Z,1.90
2023-06-14T16:05:59.753Z,1.93
2023-06-14T16:08:40.118Z,2.23
2023-06-14T16:11:11.126Z,1.70
2023-06-14T16:13:39.758Z,1.53
2023-06-14T16:16:08.050Z,1.77
2023-06-14T16:18:36.850Z,1.53
2023-06-14T16:21:07.349Z,1.43
2023-06-14T16:23:35.922Z,1.60
2023-06-14T16:26:04.462Z,1.53
2023-06-14T16:28:34.943Z,1.80
2023-06-14T16:31:03.408Z,1.90
2023-06-14T16:33:32.066Z,1.90
2023-06-14T16:36:00.750Z,1.77
2023-06-14T16:38:29.187Z,1.90
2023-06-14T16:40:57.742Z,1.43
2023-06-14T16:43:26.262Z,2.00
2023-06-14T16:45:55.949Z,1.90
2023-06-14T16:48:24.617Z,1.50
2023-06-14T16:50:53.506Z,1.90
2023-06-14T16:53:21.904Z,2.07
2023-06-14T16:55:50.766Z,1.43
2023-06-14T16:58:19.105Z,1.70
2023-06-14T17:00:47.479Z,1.50
2023-06-14T17:03:17.314Z,1.70
2023-06-14T17:05:57.666Z,1.80
2023-06-14T17:08:26.465Z,1.87
2023-06-14T17:10:56.383Z,1.60
2023-06-14T17:13:25.054Z,1.57
2023-06-14T17:15:53.411Z,2.00
2023-06-14T17:18:23.022Z,1.70
2023-06-14T17:20:52.739Z,2.27
2023-06-14T17:23:21.401Z,1.60
2023-06-14T17:25:49.894Z,1.80
2023-06-14T17:28:19.037Z,2.00
2023-06-14T17:30:47.243Z,1.57
2023-06-14T17:33:20.282Z,1.80
2023-06-14T17:35:51.290Z,1.47
2023-06-14T17:38:19.883Z,2.20
2023-06-14T17:40:51.178Z,1.83
2023-06-14T17:43:20.210Z,2.07
2023-06-14T17:45:48.536Z,1.60
2023-06-14T17:48:17.097Z,1.80
2023-06-14T17:50:45.809Z,1.97
2023-06-14T17:53:15.652Z,2.20
2023-06-14T17:55:44.175Z,2.27
2023-06-14T17:58:12.659Z,1.70
2023-06-14T18:00:41.311Z,1.70
2023-06-14T18:03:09.995Z,2.17
2023-06-14T18:05:38.890Z,1.80
2023-06-14T18:08:07.656Z,1.80
2023-06-14T18:10:38.398Z,2.27
2023-06-14T18:13:07.174Z,2.17
2023-06-14T18:15:35.649Z,2.90
2023-06-14T18:18:04.571Z,2.70
2023-06-14T18:20:34.708Z,2.10
2023-06-14T18:23:03.230Z,2.10
2023-06-14T18:25:31.650Z,1.80
2023-06-14T18:28:02.451Z,1.70
2023-06-14T18:30:30.774Z,2.17
2023-06-14T18:32:59.201Z,2.10
2023-06-14T18:35:29.677Z,1.90
2023-06-14T18:37:57.888Z,2.10
2023-06-14T18:40:26.189Z,2.10
2023-06-14T18:42:54.491Z,2.23
2023-06-14T18:45:24.353Z,2.50
2023-06-14T18:47:52.693Z,2.10
2023-06-14T18:50:20.881Z,2.40
2023-06-14T18:52:50.425Z,2.20
2023-06-14T18:55:19.902Z,2.23
2023-06-14T18:57:48.251Z,2.30
2023-06-14T19:00:18.673Z,2.50
2023-06-14T19:02:48.821Z,2.23
2023-06-14T19:05:19.041Z,2.40
2023-06-14T19:07:48.842Z,2.10
2023-06-14T19:10:17.288Z,2.17
2023-06-14T19:12:45.883Z,1.90
2023-06-14T19:15:14.284Z,2.13
2023-06-14T19:17:43.599Z,2.10
2023-06-14T19:20:13.782Z,2.33
2023-06-14T19:23:00.054Z,2.53
2023-06-14T19:28:57.904Z,2.57
2023-06-14T19:31:27.016Z,2.00
2023-06-14T19:33:55.603Z,2.70
2023-06-14T19:36:23.907Z,2.20
2023-06-14T19:38:52.870Z,2.20
2023-06-14T19:41:21.074Z,2.67
2023-06-14T19:43:49.438Z,2.27
2023-06-14T19:46:19.795Z,2.80
2023-06-14T19:48:50.444Z,2.10
2023-06-14T19:51:18.873Z,2.27
2023-06-14T19:53:47.074Z,1.77
2023-06-14T19:56:15.981Z,2.23
2023-06-14T19:58:44.140Z,2.23
2023-06-14T20:01:12.894Z,2.30
2023-06-14T20:03:44.731Z,2.20
2023-06-14T20:06:14.464Z,2.10
2023-06-14T20:08:42.769Z,2.30
2023-06-14T20:11:11.037Z,2.70
2023-06-14T20:13:39.250Z,2.50
2023-06-14T20:16:07.625Z,2.40
2023-06-14T20:18:36.113Z,2.27
2023-06-14T20:21:06.174Z,2.37
2023-06-14T20:23:34.394Z,3.57
2023-06-14T20:26:02.733Z,2.20
2023-06-14T20:28:32.311Z,2.60
2023-06-14T20:31:00.669Z,2.57
2023-06-14T20:33:30.366Z,2.40
2023-06-14T20:35:58.818Z,2.77
2023-06-14T20:38:28.825Z,2.57
2023-06-14T20:40:59.314Z,2.67
2023-06-14T20:43:29.050Z,2.60
2023-06-14T20:45:58.093Z,2.77
2023-06-14T20:48:27.305Z,2.10
2023-06-14T20:50:58.745Z,2.57
2023-06-14T20:53:28.340Z,2.50
2023-06-14T20:55:56.617Z,2.37
2023-06-14T20:58:25.877Z,2.50
2023-06-14T21:00:54.659Z,2.60
2023-06-14T21:03:22.986Z,2.40
2023-06-14T21:05:52.574Z,2.80
2023-06-14T21:08:20.819Z,2.53
2023-06-14T21:10:50.435Z,2.43
2023-06-14T21:13:18.769Z,2.70
2023-06-14T21:15:47.463Z,2.60
2023-06-14T21:18:16.032Z,2.37
2023-06-14T21:20:44.251Z,2.30
2023-06-14T21:23:12.541Z,3.10
2023-06-14T21:25:40.841Z,2.63
2023-06-14T21:28:12.032Z,2.60
2023-06-14T21:30:40.600Z,2.70
2023-06-14T21:33:09.241Z,3.03
2023-06-14T21:35:37.725Z,2.57
2023-06-14T21:38:06.413Z,3.00
2023-06-14T21:40:34.967Z,2.90
2023-06-14T21:43:03.260Z,3.50
2023-06-14T21:45:33.182Z,2.50
2023-06-14T21:48:02.837Z,2.63
2023-06-14T21:50:32.217Z,2.37
2023-06-14T21:53:00.658Z,2.77
2023-06-14T21:55:29.144Z,2.50
2023-06-14T21:57:57.454Z,3.20
2023-06-14T22:00:26.108Z,3.10
2023-06-14T22:02:56.012Z,3.27
2023-06-14T22:05:24.612Z,3.27
2023-06-14T22:07:53.082Z,3.43
2023-06-14T22:10:21.730Z,3.37
2023-06-14T22:12:52.617Z,3.70
2023-06-14T22:15:22.344Z,3.20
2023-06-14T22:17:53.116Z,3.80
2023-06-14T22:20:23.041Z,3.97
2023-06-14T22:22:51.549Z,3.40
2023-06-14T22:25:20.662Z,3.40
2023-06-14T22:27:51.153Z,3.70
2023-06-14T22:30:19.697Z,4.00
2023-06-14T22:32:50.305Z,3.73
2023-06-14T22:35:19.602Z,3.60
2023-06-14T22:37:50.976Z,3.80
2023-06-14T22:40:19.817Z,3.20
2023-06-14T22:42:50.835Z,4.50
2023-06-14T22:45:24.473Z,4.00
2023-06-14T22:47:54.752Z,4.43
2023-06-14T22:50:23.965Z,4.47
2023-06-14T22:52:54.227Z,5.17
2023-06-14T22:55:27.175Z,4.50
2023-06-14T22:57:55.672Z,4.80
2023-06-14T23:00:24.451Z,5.37
2023-06-14T23:02:53.451Z,4.70
2023-06-14T23:05:22.144Z,5.10
2023-06-14T23:07:50.934Z,5.10
2023-06-14T23:10:24.520Z,4.77
2023-06-14T23:12:52.907Z,4.70
2023-06-14T23:15:21.815Z,4.97
2023-06-14T23:17:51.749Z,6.23
2023-06-14T23:20:21.429Z,6.37
2023-06-14T23:22:50.574Z,5.60
2023-06-14T23:25:20.542Z,6.20
2023-06-14T23:27:49.857Z,6.40
2023-06-14T23:30:18.685Z,5.90
2023-06-14T23:32:51.016Z,5.87
2023-06-14T23:35:20.433Z,6.40
2023-06-14T23:37:48.990Z,5.97
2023-06-14T23:40:17.647Z,6.03
2023-06-14T23:42:52.348Z,5.47
2023-06-14T23:45:20.714Z,5.70
2023-06-14T23:47:49.250Z,6.53
2023-06-14T23:50:18.047Z,6.40
2023-06-14T23:52:46.643Z,6.07
2023-06-14T23:55:20.901Z,5.83
2023-06-14T23:57:51.670Z,6.37
